sensor_id;sensor_type;location;lat;lon;timestamp;pressure;altitude;pressure_sealevel;temperature;humidity
9249;BME280;4660;41.768;26.198;2024-01-25T00:02:06;101340.69;;;0.96;100.00
9249;BME280;4660;41.768;26.198;2024-01-25T00:04:32;101367.28;;;1.15;100.00
9249;BME280;4660;41.768;26.198;2024-01-25T00:06:58;101347.44;;;1.23;100.00
9249;BME280;4660;41.768;26.198;2024-01-25T00:09:23;101373.38;;;1.37;100.00
9249;BME280;4660;41.768;26.198;2024-01-25T00:11:49;101353.38;;;1.49;100.00
9249;BME280;4660;41.768;26.198;2024-01-25T00:14:14;101348.34;;;1.63;100.00
9249;BME280;4660;41.768;26.198;2024-01-25T00:16:43;101347.34;;;1.65;100.00
9249;BME280;4660;41.768;26.198;2024-01-25T00:19:08;101339.34;;;1.47;100.00
9249;BME280;4660;41.768;26.198;2024-01-25T00:21:34;101330.59;;;1.65;100.00
9249;BME280;4660;41.768;26.198;2024-01-25T00:24:00;101347.41;;;1.64;100.00
9249;BME280;4660;41.768;26.198;2024-01-25T00:26:27;101361.66;;;1.61;100.00
9249;BME280;4660;41.768;26.198;2024-01-25T00:28:52;101357.31;;;1.40;100.00
9249;BME280;4660;41.768;26.198;2024-01-25T00:31:18;101368.59;;;1.25;100.00
9249;BME280;4660;41.768;26.198;2024-01-25T00:33:44;101354.06;;;1.54;100.00
9249;BME280;4660;41.768;26.198;2024-01-25T00:36:10;101333.44;;;1.60;100.00
9249;BME280;4660;41.768;26.198;2024-01-25T00:38:36;101356.09;;;1.68;100.00
9249;BME280;4660;41.768;26.198;2024-01-25T00:41:02;101372.47;;;1.57;100.00
9249;BME280;4660;41.768;26.198;2024-01-25T00:43:29;101380.19;;;1.22;100.00
9249;BME280;4660;41.768;26.198;2024-01-25T00:45:56;101387.19;;;1.03;100.00
9249;BME280;4660;41.768;26.198;2024-01-25T00:48:22;101375.31;;;1.12;100.00
9249;BME280;4660;41.768;26.198;2024-01-25T00:50:47;101359.63;;;1.27;100.00
9249;BME280;4660;41.768;26.198;2024-01-25T00:53:13;101323.00;;;1.37;100.00
9249;BME280;4660;41.768;26.198;2024-01-25T00:55:39;101324.09;;;1.52;100.00
9249;BME280;4660;41.768;26.198;2024-01-25T00:58:08;101320.88;;;1.64;100.00
9249;BME280;4660;41.768;26.198;2024-01-25T01:00:34;101292.47;;;1.47;100.00
9249;BME280;4660;41.768;26.198;2024-01-25T01:03:02;101260.47;;;1.52;100.00
9249;BME280;4660;41.768;26.198;2024-01-25T01:05:29;101266.41;;;1.57;100.00
9249;BME280;4660;41.768;26.198;2024-01-25T01:07:54;101252.16;;;1.59;100.00
9249;BME280;4660;41.768;26.198;2024-01-25T01:10:20;101223.91;;;1.40;100.00
9249;BME280;4660;41.768;26.198;2024-01-25T01:12:46;101272.59;;;1.57;100.00
9249;BME280;4660;41.768;26.198;2024-01-25T01:15:11;101304.59;;;1.53;100.00
9249;BME280;4660;41.768;26.198;2024-01-25T01:17:37;101300.19;;;1.72;100.00
9249;BME280;4660;41.768;26.198;2024-01-25T01:20:02;101275.94;;;1.61;100.00
9249;BME280;4660;41.768;26.198;2024-01-25T01:22:28;101274.59;;;1.52;100.00
9249;BME280;4660;41.768;26.198;2024-01-25T01:24:53;101278.97;;;1.72;100.00
9249;BME280;4660;41.768;26.198;2024-01-25T01:27:19;101248.69;;;1.38;100.00
9249;BME280;4660;41.768;26.198;2024-01-25T01:29:46;101257.84;;;1.31;100.00
9249;BME280;4660;41.768;26.198;2024-01-25T01:32:11;101231.13;;;1.17;100.00
9249;BME280;4660;41.768;26.198;2024-01-25T01:34:37;101236.56;;;1.33;100.00
9249;BME280;4660;41.768;26.198;2024-01-25T01:37:02;101228.47;;;1.17;100.00
9249;BME280;4660;41.768;26.198;2024-01-25T01:39:28;101214.13;;;1.21;100.00
9249;BME280;4660;41.768;26.198;2024-01-25T01:41:53;101216.59;;;1.26;100.00
9249;BME280;4660;41.768;26.198;2024-01-25T01:44:19;101202.13;;;1.33;100.00
9249;BME280;4660;41.768;26.198;2024-01-25T01:46:46;101220.75;;;1.31;100.00
9249;BME280;4660;41.768;26.198;2024-01-25T01:49:12;101225.31;;;1.09;100.00
9249;BME280;4660;41.768;26.198;2024-01-25T01:51:38;101226.56;;;1.40;100.00
9249;BME280;4660;41.768;26.198;2024-01-25T01:54:09;101223.75;;;1.43;100.00
9249;BME280;4660;41.768;26.198;2024-01-25T01:56:35;101232.91;;;1.35;100.00
9249;BME280;4660;41.768;26.198;2024-01-25T01:59:01;101232.81;;;1.57;100.00
9249;BME280;4660;41.768;26.198;2024-01-25T02:01:28;101214.31;;;1.56;100.00
9249;BME280;4660;41.768;26.198;2024-01-25T02:03:53;101230.81;;;1.44;100.00
9249;BME280;4660;41.768;26.198;2024-01-25T02:06:19;101222.75;;;1.64;100.00
9249;BME280;4660;41.768;26.198;2024-01-25T02:08:48;101223.41;;;1.69;100.00
9249;BME280;4660;41.768;26.198;2024-01-25T02:11:16;101221.03;;;1.63;100.00
9249;BME280;4660;41.768;26.198;2024-01-25T02:13:41;101218.59;;;1.40;100.00
9249;BME280;4660;41.768;26.198;2024-01-25T02:16:07;101230.44;;;1.70;100.00
9249;BME280;4660;41.768;26.198;2024-01-25T02:18:33;101237.53;;;1.88;100.00
9249;BME280;4660;41.768;26.198;2024-01-25T02:20:59;101234.50;;;1.96;100.00
9249;BME280;4660;41.768;26.198;2024-01-25T02:23:24;101225.47;;;2.00;100.00
9249;BME280;4660;41.768;26.198;2024-01-25T02:25:50;101221.03;;;2.01;100.00
9249;BME280;4660;41.768;26.198;2024-01-25T02:28:15;101211.13;;;1.85;100.00
9249;BME280;4660;41.768;26.198;2024-01-25T02:30:42;101233.47;;;1.99;100.00
9249;BME280;4660;41.768;26.198;2024-01-25T02:33:08;101225.56;;;1.80;100.00
9249;BME280;4660;41.768;26.198;2024-01-25T02:35:33;101234.22;;;2.02;100.00
9249;BME280;4660;41.768;26.198;2024-01-25T02:37:59;101224.38;;;2.04;100.00
9249;BME280;4660;41.768;26.198;2024-01-25T02:40:25;101216.50;;;2.03;100.00
9249;BME280;4660;41.768;26.198;2024-01-25T02:42:50;101209.69;;;1.97;100.00
9249;BME280;4660;41.768;26.198;2024-01-25T02:45:16;101205.03;;;1.83;100.00
9249;BME280;4660;41.768;26.198;2024-01-25T02:47:41;101210.91;;;1.71;100.00
9249;BME280;4660;41.768;26.198;2024-01-25T02:50:07;101215.72;;;1.63;100.00
9249;BME280;4660;41.768;26.198;2024-01-25T02:52:33;101219.88;;;1.50;100.00
9249;BME280;4660;41.768;26.198;2024-01-25T02:54:58;101198.44;;;1.35;100.00
9249;BME280;4660;41.768;26.198;2024-01-25T02:57:25;101191.72;;;1.28;100.00
9249;BME280;4660;41.768;26.198;2024-01-25T02:59:50;101199.53;;;1.31;100.00
9249;BME280;4660;41.768;26.198;2024-01-25T03:02:16;101188.31;;;1.06;100.00
9249;BME280;4660;41.768;26.198;2024-01-25T03:04:45;101140.34;;;1.12;100.00
9249;BME280;4660;41.768;26.198;2024-01-25T03:07:10;101152.41;;;1.19;100.00
9249;BME280;4660;41.768;26.198;2024-01-25T03:09:36;101132.19;;;1.35;100.00
9249;BME280;4660;41.768;26.198;2024-01-25T03:12:02;101104.25;;;1.28;100.00
9249;BME280;4660;41.768;26.198;2024-01-25T03:14:27;101140.28;;;1.32;100.00
9249;BME280;4660;41.768;26.198;2024-01-25T03:16:53;101136.44;;;1.40;100.00
9249;BME280;4660;41.768;26.198;2024-01-25T03:19:18;101152.50;;;1.36;100.00
9249;BME280;4660;41.768;26.198;2024-01-25T03:21:44;101139.47;;;0.93;100.00
9249;BME280;4660;41.768;26.198;2024-01-25T03:24:10;101141.66;;;1.03;100.00
9249;BME280;4660;41.768;26.198;2024-01-25T03:26:35;101148.22;;;0.95;100.00
9249;BME280;4660;41.768;26.198;2024-01-25T03:29:01;101152.03;;;0.69;100.00
9249;BME280;4660;41.768;26.198;2024-01-25T03:31:27;101148.59;;;0.87;100.00
9249;BME280;4660;41.768;26.198;2024-01-25T03:33:52;101089.50;;;0.85;100.00
9249;BME280;4660;41.768;26.198;2024-01-25T03:36:18;101109.94;;;1.02;100.00
9249;BME280;4660;41.768;26.198;2024-01-25T03:38:43;101118.59;;;1.24;100.00
9249;BME280;4660;41.768;26.198;2024-01-25T03:41:09;101133.28;;;1.31;100.00
9249;BME280;4660;41.768;26.198;2024-01-25T03:43:36;101134.34;;;1.27;100.00
9249;BME280;4660;41.768;26.198;2024-01-25T03:46:02;101139.22;;;1.36;100.00
9249;BME280;4660;41.768;26.198;2024-01-25T03:48:28;101147.41;;;1.51;100.00
9249;BME280;4660;41.768;26.198;2024-01-25T03:50:54;101153.41;;;1.54;100.00
9249;BME280;4660;41.768;26.198;2024-01-25T03:53:23;101150.25;;;1.46;100.00
9249;BME280;4660;41.768;26.198;2024-01-25T03:55:51;101169.09;;;1.59;100.00
9249;BME280;4660;41.768;26.198;2024-01-25T03:58:23;101108.50;;;1.32;100.00
9249;BME280;4660;41.768;26.198;2024-01-25T04:00:50;101042.19;;;0.77;100.00
9249;BME280;4660;41.768;26.198;2024-01-25T04:03:16;101062.00;;;0.69;100.00
9249;BME280;4660;41.768;26.198;2024-01-25T04:05:43;101086.78;;;1.05;100.00
9249;BME280;4660;41.768;26.198;2024-01-25T04:08:08;101167.28;;;1.41;100.00
9249;BME280;4660;41.768;26.198;2024-01-25T04:10:34;101150.84;;;1.15;100.00
9249;BME280;4660;41.768;26.198;2024-01-25T04:13:00;101154.97;;;1.21;100.00
9249;BME280;4660;41.768;26.198;2024-01-25T04:15:26;101159.88;;;1.30;100.00
9249;BME280;4660;41.768;26.198;2024-01-25T04:17:52;101153.81;;;1.26;100.00
9249;BME280;4660;41.768;26.198;2024-01-25T04:20:21;101143.22;;;1.26;100.00
9249;BME280;4660;41.768;26.198;2024-01-25T04:22:47;101138.91;;;1.05;100.00
9249;BME280;4660;41.768;26.198;2024-01-25T04:25:13;101146.25;;;1.19;100.00
9249;BME280;4660;41.768;26.198;2024-01-25T04:27:38;101143.66;;;1.17;100.00
9249;BME280;4660;41.768;26.198;2024-01-25T04:30:05;101147.53;;;1.10;100.00
9249;BME280;4660;41.768;26.198;2024-01-25T04:32:32;101165.50;;;1.03;100.00
9249;BME280;4660;41.768;26.198;2024-01-25T04:34:58;101160.63;;;0.94;100.00
9249;BME280;4660;41.768;26.198;2024-01-25T04:37:24;101135.53;;;0.82;100.00
9249;BME280;4660;41.768;26.198;2024-01-25T04:39:50;101156.88;;;0.79;100.00
9249;BME280;4660;41.768;26.198;2024-01-25T04:42:15;101176.19;;;0.61;100.00
9249;BME280;4660;41.768;26.198;2024-01-25T04:44:41;101171.09;;;0.57;100.00
9249;BME280;4660;41.768;26.198;2024-01-25T04:47:06;101160.13;;;0.66;100.00
9249;BME280;4660;41.768;26.198;2024-01-25T04:49:31;101156.47;;;0.68;100.00
9249;BME280;4660;41.768;26.198;2024-01-25T04:51:57;101152.72;;;0.53;100.00
9249;BME280;4660;41.768;26.198;2024-01-25T04:54:22;101133.19;;;0.36;100.00
9249;BME280;4660;41.768;26.198;2024-01-25T04:56:48;101130.00;;;0.27;100.00
9249;BME280;4660;41.768;26.198;2024-01-25T04:59:13;101144.31;;;0.23;100.00
9249;BME280;4660;41.768;26.198;2024-01-25T05:01:39;101113.88;;;-0.07;100.00
9249;BME280;4660;41.768;26.198;2024-01-25T05:04:05;101129.69;;;0.15;100.00
9249;BME280;4660;41.768;26.198;2024-01-25T05:06:30;101129.97;;;0.29;100.00
9249;BME280;4660;41.768;26.198;2024-01-25T05:08:56;101137.16;;;0.46;100.00
9249;BME280;4660;41.768;26.198;2024-01-25T05:11:22;101128.63;;;0.60;100.00
9249;BME280;4660;41.768;26.198;2024-01-25T05:13:47;101143.66;;;0.59;100.00
9249;BME280;4660;41.768;26.198;2024-01-25T05:16:13;101132.38;;;0.34;100.00
9249;BME280;4660;41.768;26.198;2024-01-25T05:18:40;101134.50;;;0.05;100.00
9249;BME280;4660;41.768;26.198;2024-01-25T05:21:05;101133.47;;;0.30;100.00
9249;BME280;4660;41.768;26.198;2024-01-25T05:23:32;101148.53;;;0.27;100.00
9249;BME280;4660;41.768;26.198;2024-01-25T05:25:58;101149.81;;;-0.03;100.00
9249;BME280;4660;41.768;26.198;2024-01-25T05:28:24;101150.63;;;0.19;100.00
9249;BME280;4660;41.768;26.198;2024-01-25T05:30:50;101134.84;;;0.38;100.00
9249;BME280;4660;41.768;26.198;2024-01-25T05:33:15;101144.16;;;0.26;100.00
9249;BME280;4660;41.768;26.198;2024-01-25T05:35:41;101124.19;;;0.19;100.00
9249;BME280;4660;41.768;26.198;2024-01-25T05:38:08;101108.97;;;0.04;100.00
9249;BME280;4660;41.768;26.198;2024-01-25T05:40:34;101130.22;;;0.23;100.00
9249;BME280;4660;41.768;26.198;2024-01-25T05:43:00;101125.22;;;0.36;100.00
9249;BME280;4660;41.768;26.198;2024-01-25T05:45:25;101139.47;;;0.53;100.00
9249;BME280;4660;41.768;26.198;2024-01-25T05:47:52;101104.63;;;0.23;100.00
9249;BME280;4660;41.768;26.198;2024-01-25T05:50:18;101139.66;;;0.49;100.00
9249;BME280;4660;41.768;26.198;2024-01-25T05:52:43;101123.66;;;0.32;100.00
9249;BME280;4660;41.768;26.198;2024-01-25T05:55:12;101132.91;;;0.21;100.00
9249;BME280;4660;41.768;26.198;2024-01-25T05:57:42;101118.75;;;0.43;100.00
9249;BME280;4660;41.768;26.198;2024-01-25T06:00:08;101146.16;;;0.62;100.00
9249;BME280;4660;41.768;26.198;2024-01-25T06:02:35;101134.78;;;0.60;100.00
9249;BME280;4660;41.768;26.198;2024-01-25T06:05:01;101123.91;;;0.66;100.00
9249;BME280;4660;41.768;26.198;2024-01-25T06:07:27;101096.50;;;0.67;100.00
9249;BME280;4660;41.768;26.198;2024-01-25T06:09:53;101132.19;;;0.98;100.00
9249;BME280;4660;41.768;26.198;2024-01-25T06:12:19;101028.25;;;0.35;100.00
9249;BME280;4660;41.768;26.198;2024-01-25T06:15:08;101111.84;;;0.98;100.00
9249;BME280;4660;41.768;26.198;2024-01-25T06:20:39;101132.25;;;0.96;100.00
9249;BME280;4660;41.768;26.198;2024-01-25T06:23:17;101152.47;;;0.78;100.00
9249;BME280;4660;41.768;26.198;2024-01-25T06:25:46;101134.16;;;0.93;100.00
9249;BME280;4660;41.768;26.198;2024-01-25T06:28:12;101114.59;;;1.16;100.00
9249;BME280;4660;41.768;26.198;2024-01-25T06:30:38;101105.84;;;1.14;100.00
9249;BME280;4660;41.768;26.198;2024-01-25T06:33:05;101130.91;;;1.44;100.00
9249;BME280;4660;41.768;26.198;2024-01-25T06:35:31;101122.59;;;1.14;100.00
9249;BME280;4660;41.768;26.198;2024-01-25T06:37:57;101125.16;;;1.34;100.00
9249;BME280;4660;41.768;26.198;2024-01-25T06:40:26;101055.16;;;1.02;100.00
9249;BME280;4660;41.768;26.198;2024-01-25T06:42:52;101134.53;;;1.79;100.00
9249;BME280;4660;41.768;26.198;2024-01-25T06:45:20;101142.16;;;1.85;100.00
9249;BME280;4660;41.768;26.198;2024-01-25T06:50:27;101146.94;;;1.60;100.00
9249;BME280;4660;41.768;26.198;2024-01-25T06:52:53;101072.75;;;1.03;100.00
9249;BME280;4660;41.768;26.198;2024-01-25T06:55:20;101120.09;;;1.11;100.00
9249;BME280;4660;41.768;26.198;2024-01-25T06:57:49;101054.88;;;0.90;100.00
9249;BME280;4660;41.768;26.198;2024-01-25T07:00:17;101083.50;;;1.19;100.00
9249;BME280;4660;41.768;26.198;2024-01-25T07:02:43;101076.78;;;1.12;100.00
9249;BME280;4660;41.768;26.198;2024-01-25T07:10:50;101064.03;;;1.01;100.00
9249;BME280;4660;41.768;26.198;2024-01-25T07:13:19;101038.78;;;0.94;100.00
9249;BME280;4660;41.768;26.198;2024-01-25T07:26:28;101042.25;;;0.76;100.00
9249;BME280;4660;41.768;26.198;2024-01-25T07:28:55;101112.00;;;1.33;100.00
9249;BME280;4660;41.768;26.198;2024-01-25T07:31:48;101010.97;;;0.84;100.00
9249;BME280;4660;41.768;26.198;2024-01-25T07:34:18;101074.31;;;1.45;100.00
9249;BME280;4660;41.768;26.198;2024-01-25T07:36:45;101165.53;;;1.77;100.00
9249;BME280;4660;41.768;26.198;2024-01-25T07:41:48;101060.13;;;1.27;100.00
9249;BME280;4660;41.768;26.198;2024-01-25T07:44:15;101132.06;;;1.57;100.00
9249;BME280;4660;41.768;26.198;2024-01-25T07:46:50;101161.22;;;1.93;100.00
9249;BME280;4660;41.768;26.198;2024-01-25T07:52:05;101158.91;;;2.05;100.00
9249;BME280;4660;41.768;26.198;2024-01-25T08:07:16;101151.47;;;1.94;100.00
9249;BME280;4660;41.768;26.198;2024-01-25T08:49:48;101081.78;;;3.86;100.00
9249;BME280;4660;41.768;26.198;2024-01-25T09:03:07;101161.69;;;4.75;100.00
9249;BME280;4660;41.768;26.198;2024-01-25T09:48:31;101055.88;;;7.74;100.00
9249;BME280;4660;41.768;26.198;2024-01-25T09:51:05;101010.88;;;7.79;100.00
9249;BME280;4660;41.768;26.198;2024-01-25T09:54:13;101056.94;;;8.31;100.00
9249;BME280;4660;41.768;26.198;2024-01-25T10:02:29;101038.88;;;8.79;100.00
9249;BME280;4660;41.768;26.198;2024-01-25T10:05:08;100995.34;;;8.87;100.00
9249;BME280;4660;41.768;26.198;2024-01-25T10:07:37;100952.75;;;8.71;100.00
9249;BME280;4660;41.768;26.198;2024-01-25T10:10:05;100979.19;;;8.98;100.00
9249;BME280;4660;41.768;26.198;2024-01-25T10:17:45;100953.91;;;9.76;100.00
9249;BME280;4660;41.768;26.198;2024-01-25T10:33:51;101019.06;;;10.72;100.00
9249;BME280;4660;41.768;26.198;2024-01-25T10:42:05;100905.69;;;10.56;100.00
9249;BME280;4660;41.768;26.198;2024-01-25T10:44:41;100995.06;;;11.00;100.00
9249;BME280;4660;41.768;26.198;2024-01-25T10:50:22;101000.00;;;11.45;100.00
9249;BME280;4660;41.768;26.198;2024-01-25T10:53:18;100998.44;;;11.62;99.65
9249;BME280;4660;41.768;26.198;2024-01-25T11:03:31;100861.59;;;11.26;97.48
9249;BME280;4660;41.768;26.198;2024-01-25T11:06:11;100869.25;;;11.41;96.31
9249;BME280;4660;41.768;26.198;2024-01-25T11:08:38;100933.88;;;11.99;95.60
9249;BME280;4660;41.768;26.198;2024-01-25T11:11:10;100978.34;;;12.42;95.86
9249;BME280;4660;41.768;26.198;2024-01-25T11:13:39;100896.97;;;12.09;94.16
9249;BME280;4660;41.768;26.198;2024-01-25T11:16:16;100968.22;;;12.53;93.77
9249;BME280;4660;41.768;26.198;2024-01-25T11:18:50;100953.03;;;12.52;94.21
9249;BME280;4660;41.768;26.198;2024-01-25T11:21:51;100958.38;;;12.62;93.60
9249;BME280;4660;41.768;26.198;2024-01-25T11:32:04;100945.84;;;12.98;92.19
9249;BME280;4660;41.768;26.198;2024-01-25T11:34:32;100925.41;;;13.13;91.96
9249;BME280;4660;41.768;26.198;2024-01-25T11:37:02;100909.75;;;13.17;90.49
9249;BME280;4660;41.768;26.198;2024-01-25T11:47:15;100808.66;;;12.66;87.13
9249;BME280;4660;41.768;26.198;2024-01-25T11:49:41;100906.06;;;13.18;84.60
9249;BME280;4660;41.768;26.198;2024-01-25T11:52:09;100854.19;;;12.97;82.93
9249;BME280;4660;41.768;26.198;2024-01-25T11:54:35;100835.53;;;13.21;79.39
9249;BME280;4660;41.768;26.198;2024-01-25T11:57:30;100947.66;;;13.96;75.63
9249;BME280;4660;41.768;26.198;2024-01-25T11:59:58;100935.59;;;14.09;76.59
9249;BME280;4660;41.768;26.198;2024-01-25T12:02:26;100907.72;;;13.90;77.58
9249;BME280;4660;41.768;26.198;2024-01-25T12:04:53;100876.41;;;13.62;77.24
9249;BME280;4660;41.768;26.198;2024-01-25T12:23:05;100832.91;;;13.29;74.21
9249;BME280;4660;41.768;26.198;2024-01-25T12:44:08;100929.63;;;13.26;79.22
9249;BME280;4660;41.768;26.198;2024-01-25T12:46:39;100888.75;;;12.93;79.85
9249;BME280;4660;41.768;26.198;2024-01-25T12:52:02;100808.44;;;12.50;75.15
9249;BME280;4660;41.768;26.198;2024-01-25T12:54:30;100791.66;;;12.56;74.84
9249;BME280;4660;41.768;26.198;2024-01-25T13:00:05;100874.59;;;13.44;74.26
9249;BME280;4660;41.768;26.198;2024-01-25T13:02:30;100929.75;;;13.77;74.20
9249;BME280;4660;41.768;26.198;2024-01-25T13:04:56;100913.28;;;13.45;74.53
9249;BME280;4660;41.768;26.198;2024-01-25T13:07:21;100929.84;;;13.50;75.54
9249;BME280;4660;41.768;26.198;2024-01-25T13:09:47;100929.88;;;13.32;75.72
9249;BME280;4660;41.768;26.198;2024-01-25T13:12:12;100920.13;;;13.39;74.89
9249;BME280;4660;41.768;26.198;2024-01-25T13:14:39;100901.50;;;13.18;74.63
9249;BME280;4660;41.768;26.198;2024-01-25T13:17:04;100930.22;;;13.19;74.25
9249;BME280;4660;41.768;26.198;2024-01-25T13:19:33;100928.19;;;13.04;74.11
9249;BME280;4660;41.768;26.198;2024-01-25T13:21:59;100944.78;;;13.09;74.73
9249;BME280;4660;41.768;26.198;2024-01-25T13:24:24;100947.41;;;13.01;74.67
9249;BME280;4660;41.768;26.198;2024-01-25T13:26:50;100927.59;;;12.82;75.07
9249;BME280;4660;41.768;26.198;2024-01-25T13:29:15;100952.84;;;12.91;75.43
9249;BME280;4660;41.768;26.198;2024-01-25T13:31:41;100949.78;;;12.86;74.43
9249;BME280;4660;41.768;26.198;2024-01-25T13:34:07;100926.41;;;12.67;73.98
9249;BME280;4660;41.768;26.198;2024-01-25T13:36:32;100949.91;;;12.84;73.84
9249;BME280;4660;41.768;26.198;2024-01-25T13:38:58;100922.03;;;12.66;74.26
9249;BME280;4660;41.768;26.198;2024-01-25T13:41:24;100957.31;;;12.82;74.77
9249;BME280;4660;41.768;26.198;2024-01-25T13:43:49;100945.84;;;12.71;75.09
9249;BME280;4660;41.768;26.198;2024-01-25T13:46:15;100958.22;;;12.73;75.82
9249;BME280;4660;41.768;26.198;2024-01-25T13:48:40;100944.63;;;12.65;77.39
9249;BME280;4660;41.768;26.198;2024-01-25T13:51:06;100915.28;;;12.43;79.20
9249;BME280;4660;41.768;26.198;2024-01-25T13:53:31;100900.59;;;12.27;79.69
9249;BME280;4660;41.768;26.198;2024-01-25T13:55:57;100941.09;;;12.55;79.55
9249;BME280;4660;41.768;26.198;2024-01-25T13:58:22;100940.25;;;12.54;79.18
9249;BME280;4660;41.768;26.198;2024-01-25T14:00:48;100945.69;;;12.45;79.71
9249;BME280;4660;41.768;26.198;2024-01-25T14:03:15;100940.28;;;12.45;80.12
9249;BME280;4660;41.768;26.198;2024-01-25T14:05:42;100941.56;;;12.40;80.35
9249;BME280;4660;41.768;26.198;2024-01-25T14:08:07;100928.59;;;12.17;81.09
9249;BME280;4660;41.768;26.198;2024-01-25T14:10:33;100925.31;;;12.23;81.83
9249;BME280;4660;41.768;26.198;2024-01-25T14:13:00;100925.31;;;12.23;81.62
9249;BME280;4660;41.768;26.198;2024-01-25T14:15:25;100912.00;;;12.11;81.25
9249;BME280;4660;41.768;26.198;2024-01-25T14:17:51;100915.66;;;12.20;81.20
9249;BME280;4660;41.768;26.198;2024-01-25T14:20:17;100912.84;;;12.12;81.48
9249;BME280;4660;41.768;26.198;2024-01-25T14:22:43;100925.22;;;12.15;82.11
9249;BME280;4660;41.768;26.198;2024-01-25T14:25:09;100909.34;;;12.02;81.81
9249;BME280;4660;41.768;26.198;2024-01-25T14:27:35;100894.16;;;11.91;82.54
9249;BME280;4660;41.768;26.198;2024-01-25T14:30:01;100917.53;;;12.10;82.42
9249;BME280;4660;41.768;26.198;2024-01-25T14:32:29;100886.22;;;11.90;82.35
9249;BME280;4660;41.768;26.198;2024-01-25T14:34:54;100880.28;;;11.86;83.18
9249;BME280;4660;41.768;26.198;2024-01-25T14:37:20;100877.19;;;11.81;83.99
9249;BME280;4660;41.768;26.198;2024-01-25T14:39:45;100902.97;;;11.93;84.24
9249;BME280;4660;41.768;26.198;2024-01-25T14:42:12;100900.94;;;12.05;83.70
9249;BME280;4660;41.768;26.198;2024-01-25T14:44:38;100911.47;;;11.98;85.00
9249;BME280;4660;41.768;26.198;2024-01-25T14:47:04;100907.53;;;11.83;85.68
9249;BME280;4660;41.768;26.198;2024-01-25T14:49:30;100902.41;;;11.61;86.00
9249;BME280;4660;41.768;26.198;2024-01-25T14:51:55;100912.19;;;11.71;86.05
9249;BME280;4660;41.768;26.198;2024-01-25T14:54:21;100919.16;;;11.74;86.28
9249;BME280;4660;41.768;26.198;2024-01-25T14:56:47;100869.81;;;11.35;86.23
9249;BME280;4660;41.768;26.198;2024-01-25T14:59:18;100878.31;;;11.40;86.05
9249;BME280;4660;41.768;26.198;2024-01-25T15:01:47;100893.63;;;11.49;86.42
9249;BME280;4660;41.768;26.198;2024-01-25T15:04:12;100935.75;;;11.69;86.52
9249;BME280;4660;41.768;26.198;2024-01-25T15:06:39;100933.34;;;11.66;86.49
9249;BME280;4660;41.768;26.198;2024-01-25T15:09:04;100940.41;;;11.77;86.28
9249;BME280;4660;41.768;26.198;2024-01-25T15:11:32;100940.88;;;11.82;86.88
9249;BME280;4660;41.768;26.198;2024-01-25T15:13:58;100914.63;;;11.45;86.81
9249;BME280;4660;41.768;26.198;2024-01-25T15:16:23;100928.81;;;11.38;87.07
9249;BME280;4660;41.768;26.198;2024-01-25T15:18:49;100924.56;;;11.45;87.31
9249;BME280;4660;41.768;26.198;2024-01-25T15:21:14;100929.50;;;11.40;87.06
9249;BME280;4660;41.768;26.198;2024-01-25T15:23:40;100937.28;;;11.43;87.77
9249;BME280;4660;41.768;26.198;2024-01-25T15:26:05;100935.03;;;11.28;87.82
9249;BME280;4660;41.768;26.198;2024-01-25T15:28:31;100960.25;;;11.27;88.33
9249;BME280;4660;41.768;26.198;2024-01-25T15:30:57;100939.00;;;11.15;88.80
9249;BME280;4660;41.768;26.198;2024-01-25T15:33:23;100931.59;;;11.07;89.05
9249;BME280;4660;41.768;26.198;2024-01-25T15:35:48;100954.41;;;11.13;89.28
9249;BME280;4660;41.768;26.198;2024-01-25T15:38:14;100965.03;;;11.05;89.09
9249;BME280;4660;41.768;26.198;2024-01-25T15:40:43;100919.81;;;10.89;89.68
9249;BME280;4660;41.768;26.198;2024-01-25T15:43:09;100938.34;;;10.82;90.38
9249;BME280;4660;41.768;26.198;2024-01-25T15:45:34;100961.06;;;10.99;90.50
9249;BME280;4660;41.768;26.198;2024-01-25T15:48:00;100954.06;;;10.77;91.19
9249;BME280;4660;41.768;26.198;2024-01-25T15:50:26;100971.91;;;10.78;91.82
9249;BME280;4660;41.768;26.198;2024-01-25T15:52:52;100976.13;;;10.71;92.87
9249;BME280;4660;41.768;26.198;2024-01-25T15:55:21;100958.94;;;10.53;93.07
9249;BME280;4660;41.768;26.198;2024-01-25T15:57:47;100956.91;;;10.45;93.38
9249;BME280;4660;41.768;26.198;2024-01-25T16:00:13;100983.28;;;10.51;93.78
9249;BME280;4660;41.768;26.198;2024-01-25T16:02:40;100963.50;;;10.31;94.20
9249;BME280;4660;41.768;26.198;2024-01-25T16:05:06;100994.97;;;10.40;94.57
9249;BME280;4660;41.768;26.198;2024-01-25T16:07:32;100989.53;;;10.31;94.59
9249;BME280;4660;41.768;26.198;2024-01-25T16:09:57;100985.69;;;10.24;95.22
9249;BME280;4660;41.768;26.198;2024-01-25T16:12:23;100941.28;;;9.87;95.95
9249;BME280;4660;41.768;26.198;2024-01-25T16:14:49;100991.81;;;10.14;96.48
9249;BME280;4660;41.768;26.198;2024-01-25T16:17:17;100984.81;;;10.02;96.09
9249;BME280;4660;41.768;26.198;2024-01-25T16:19:43;101012.03;;;10.30;95.87
9249;BME280;4660;41.768;26.198;2024-01-25T16:22:08;100999.78;;;10.37;94.93
9249;BME280;4660;41.768;26.198;2024-01-25T16:24:34;101001.63;;;10.36;95.00
9249;BME280;4660;41.768;26.198;2024-01-25T16:27:00;101015.38;;;10.43;95.18
9249;BME280;4660;41.768;26.198;2024-01-25T16:29:26;101005.59;;;10.42;95.38
9249;BME280;4660;41.768;26.198;2024-01-25T16:31:52;100998.19;;;10.34;96.48
9249;BME280;4660;41.768;26.198;2024-01-25T16:34:18;100994.72;;;10.23;96.82
9249;BME280;4660;41.768;26.198;2024-01-25T16:36:44;100996.03;;;10.07;96.55
9249;BME280;4660;41.768;26.198;2024-01-25T16:39:09;101001.81;;;9.91;96.40
9249;BME280;4660;41.768;26.198;2024-01-25T16:41:35;101030.22;;;10.05;96.80
9249;BME280;4660;41.768;26.198;2024-01-25T16:44:01;100991.75;;;9.52;98.37
9249;BME280;4660;41.768;26.198;2024-01-25T16:46:26;100978.69;;;9.58;98.32
9249;BME280;4660;41.768;26.198;2024-01-25T16:48:52;100978.81;;;9.78;97.47
9249;BME280;4660;41.768;26.198;2024-01-25T16:51:17;101013.56;;;10.11;96.64